Magdalena, New Mexico
Current Conditions -  °F | °C
As of 12:15 PM on Friday 24 Oct 2014 (Local Time) from KONM Reporting Station
Clear Clear  
Wind Chill: 70°   Ceiling: Unl
Heat Index: 70°   Visibility: 10mi
Dew Point: 37°   Wind: 7mph
Humidity: 30%   Direction: 10°N
Pressure: 30.31"   Gusts: NA
Location:  34.12°N, 107.24°W
Report Text: KONM 241815Z AUTO 01006KT 10SM CLR 21/03 A3031 RMK AO2 T02110027
Loading
Personal Weather Stations






























Interactive Weather Map
Tropical Storm Tracking
New forecast layout! Learn more

10-Day Weather Forecast

Advertisements
Track Severe Weather on mobile